sensor_id;sensor_type;location;lat;lon;timestamp;pressure;altitude;pressure_sealevel;temperature;humidity
19259;BME280;9763;48.780;9.212;2023-04-03T00:02:24;99159.50;;;9.59;65.06
19259;BME280;9763;48.780;9.212;2023-04-03T00:05:50;99160.34;;;9.60;65.03
19259;BME280;9763;48.780;9.212;2023-04-03T00:09:14;99150.72;;;9.62;65.24
19259;BME280;9763;48.780;9.212;2023-04-03T00:12:38;99154.09;;;9.64;65.13
19259;BME280;9763;48.780;9.212;2023-04-03T00:16:03;99149.78;;;9.63;65.02
19259;BME280;9763;48.780;9.212;2023-04-03T00:19:27;99149.09;;;9.59;65.24
19259;BME280;9763;48.780;9.212;2023-04-03T00:22:51;99150.31;;;9.52;65.47
19259;BME280;9763;48.780;9.212;2023-04-03T00:26:15;99164.25;;;9.51;64.88
19259;BME280;9763;48.780;9.212;2023-04-03T00:29:39;99162.56;;;9.50;65.49
19259;BME280;9763;48.780;9.212;2023-04-03T00:33:03;99159.06;;;9.51;65.28
19259;BME280;9763;48.780;9.212;2023-04-03T00:36:27;99155.59;;;9.51;64.82
19259;BME280;9763;48.780;9.212;2023-04-03T00:39:52;99159.81;;;9.53;65.34
19259;BME280;9763;48.780;9.212;2023-04-03T00:43:20;99118.31;;;9.31;64.67
19259;BME280;9763;48.780;9.212;2023-04-03T00:46:44;99156.38;;;9.53;65.29
19259;BME280;9763;48.780;9.212;2023-04-03T00:50:08;99159.91;;;9.52;65.35
19259;BME280;9763;48.780;9.212;2023-04-03T00:53:38;99157.38;;;9.50;64.66
19259;BME280;9763;48.780;9.212;2023-04-03T00:57:06;99153.00;;;9.51;65.31
19259;BME280;9763;48.780;9.212;2023-04-03T01:00:30;99153.00;;;9.51;64.70
19259;BME280;9763;48.780;9.212;2023-04-03T01:03:55;99159.81;;;9.53;65.27
19259;BME280;9763;48.780;9.212;2023-04-03T01:07:23;99127.53;;;9.38;64.90
19259;BME280;9763;48.780;9.212;2023-04-03T01:10:47;99151.16;;;9.53;64.76
19259;BME280;9763;48.780;9.212;2023-04-03T01:14:12;99153.84;;;9.51;65.12
19259;BME280;9763;48.780;9.212;2023-04-03T01:17:39;99154.75;;;9.50;64.65
19259;BME280;9763;48.780;9.212;2023-04-03T01:21:52;99146.25;;;9.47;64.79
19259;BME280;9763;48.780;9.212;2023-04-03T01:25:20;99144.78;;;9.41;65.06
19259;BME280;9763;48.780;9.212;2023-04-03T01:28:44;99147.53;;;9.38;64.71
19259;BME280;9763;48.780;9.212;2023-04-03T01:32:10;99149.22;;;9.39;64.65
19259;BME280;9763;48.780;9.212;2023-04-03T01:35:37;99150.13;;;9.38;64.68
19259;BME280;9763;48.780;9.212;2023-04-03T01:39:02;99155.50;;;9.35;64.87
19259;BME280;9763;48.780;9.212;2023-04-03T01:42:25;99158.22;;;9.32;64.63
19259;BME280;9763;48.780;9.212;2023-04-03T01:45:49;99154.03;;;9.29;65.04
19259;BME280;9763;48.780;9.212;2023-04-03T01:49:16;99159.31;;;9.28;65.05
19259;BME280;9763;48.780;9.212;2023-04-03T01:52:40;99150.59;;;9.29;65.15
19259;BME280;9763;48.780;9.212;2023-04-03T01:56:04;99151.50;;;9.28;64.98
19259;BME280;9763;48.780;9.212;2023-04-03T01:59:28;99152.41;;;9.27;65.11
19259;BME280;9763;48.780;9.212;2023-04-03T02:02:52;99155.09;;;9.25;64.84
19259;BME280;9763;48.780;9.212;2023-04-03T02:06:17;99159.31;;;9.28;64.65
19259;BME280;9763;48.780;9.212;2023-04-03T02:09:41;99153.25;;;9.27;64.98
19259;BME280;9763;48.780;9.212;2023-04-03T02:13:04;99161.94;;;9.28;65.24
19259;BME280;9763;48.780;9.212;2023-04-03T02:16:30;99158.41;;;9.29;64.89
19259;BME280;9763;48.780;9.212;2023-04-03T02:19:54;99161.75;;;9.31;64.57
19259;BME280;9763;48.780;9.212;2023-04-03T02:23:20;99162.53;;;9.33;64.69
19259;BME280;9763;48.780;9.212;2023-04-03T02:26:46;99158.09;;;9.35;64.92
19259;BME280;9763;48.780;9.212;2023-04-03T02:30:11;99156.25;;;9.37;64.52
19259;BME280;9763;48.780;9.212;2023-04-03T02:33:36;99157.31;;;9.33;64.65
19259;BME280;9763;48.780;9.212;2023-04-03T02:37:03;99156.84;;;9.25;64.07
19259;BME280;9763;48.780;9.212;2023-04-03T02:40:28;99164.66;;;9.25;64.71
19259;BME280;9763;48.780;9.212;2023-04-03T02:43:51;99163.81;;;9.24;64.85
19259;BME280;9763;48.780;9.212;2023-04-03T02:47:16;99161.28;;;9.23;64.22
19259;BME280;9763;48.780;9.212;2023-04-03T02:50:40;99157.97;;;9.19;64.32
19259;BME280;9763;48.780;9.212;2023-04-03T02:54:04;99163.41;;;9.15;64.43
19259;BME280;9763;48.780;9.212;2023-04-03T02:57:32;99167.00;;;9.12;64.79
19259;BME280;9763;48.780;9.212;2023-04-03T03:00:56;99163.63;;;9.10;64.46
19259;BME280;9763;48.780;9.212;2023-04-03T03:04:20;99166.16;;;9.12;64.35
19259;BME280;9763;48.780;9.212;2023-04-03T03:07:43;99167.00;;;9.12;64.33
19259;BME280;9763;48.780;9.212;2023-04-03T03:11:08;99160.94;;;9.12;64.32
19259;BME280;9763;48.780;9.212;2023-04-03T03:14:33;99163.47;;;9.13;64.65
19259;BME280;9763;48.780;9.212;2023-04-03T03:17:57;99162.78;;;9.10;64.37
19259;BME280;9763;48.780;9.212;2023-04-03T03:21:21;99155.09;;;9.07;64.58
19259;BME280;9763;48.780;9.212;2023-04-03T03:24:45;99154.25;;;9.06;64.43
19259;BME280;9763;48.780;9.212;2023-04-03T03:28:09;99157.81;;;9.05;64.41
19259;BME280;9763;48.780;9.212;2023-04-03T03:31:35;99158.78;;;9.02;64.32
19259;BME280;9763;48.780;9.212;2023-04-03T03:34:59;99157.09;;;9.01;65.00
19259;BME280;9763;48.780;9.212;2023-04-03T03:38:23;99148.38;;;9.02;64.57
19259;BME280;9763;48.780;9.212;2023-04-03T03:41:49;99154.34;;;9.05;64.71
19259;BME280;9763;48.780;9.212;2023-04-03T03:45:13;99148.31;;;9.04;64.92
19259;BME280;9763;48.780;9.212;2023-04-03T03:48:38;99139.31;;;8.92;64.46
19259;BME280;9763;48.780;9.212;2023-04-03T03:52:02;99151.16;;;8.98;64.27
19259;BME280;9763;48.780;9.212;2023-04-03T03:55:26;99153.16;;;8.93;64.28
19259;BME280;9763;48.780;9.212;2023-04-03T03:58:52;99152.59;;;8.86;64.47
19259;BME280;9763;48.780;9.212;2023-04-03T04:02:16;99157.19;;;8.81;64.65
19259;BME280;9763;48.780;9.212;2023-04-03T04:05:41;99112.50;;;8.53;64.86
19259;BME280;9763;48.780;9.212;2023-04-03T04:09:05;99159.19;;;8.75;64.98
19259;BME280;9763;48.780;9.212;2023-04-03T04:12:29;99161.16;;;8.70;64.51
19259;BME280;9763;48.780;9.212;2023-04-03T04:15:53;99170.88;;;8.66;65.22
19259;BME280;9763;48.780;9.212;2023-04-03T04:19:17;99165.69;;;8.66;64.74
19259;BME280;9763;48.780;9.212;2023-04-03T04:22:42;99158.84;;;8.63;64.90
19259;BME280;9763;48.780;9.212;2023-04-03T04:26:07;99166.66;;;8.63;65.19
19259;BME280;9763;48.780;9.212;2023-04-03T04:29:32;99162.28;;;8.64;64.54
19259;BME280;9763;48.780;9.212;2023-04-03T04:32:59;99162.28;;;8.64;64.48
19259;BME280;9763;48.780;9.212;2023-04-03T04:36:24;99168.22;;;8.68;64.72
19259;BME280;9763;48.780;9.212;2023-04-03T04:39:49;99141.13;;;8.53;64.20
19259;BME280;9763;48.780;9.212;2023-04-03T04:43:13;99159.63;;;8.65;64.31
19259;BME280;9763;48.780;9.212;2023-04-03T04:46:39;99161.38;;;8.65;64.24
19259;BME280;9763;48.780;9.212;2023-04-03T04:50:05;99162.28;;;8.64;64.11
19259;BME280;9763;48.780;9.212;2023-04-03T04:53:29;99163.13;;;8.64;64.25
19259;BME280;9763;48.780;9.212;2023-04-03T04:56:54;99167.44;;;8.65;64.17
19259;BME280;9763;48.780;9.212;2023-04-03T05:00:19;99160.59;;;8.63;64.34
19259;BME280;9763;48.780;9.212;2023-04-03T05:03:43;99176.09;;;8.66;64.25
19259;BME280;9763;48.780;9.212;2023-04-03T05:07:07;99175.16;;;8.67;64.74
19259;BME280;9763;48.780;9.212;2023-04-03T05:10:32;99176.88;;;8.68;64.20
19259;BME280;9763;48.780;9.212;2023-04-03T05:13:58;99177.53;;;8.72;64.32
19259;BME280;9763;48.780;9.212;2023-04-03T05:17:23;99186.78;;;8.79;64.66
19259;BME280;9763;48.780;9.212;2023-04-03T05:20:51;99187.47;;;8.82;64.58
19259;BME280;9763;48.780;9.212;2023-04-03T05:24:16;99191.63;;;8.86;64.59
19259;BME280;9763;48.780;9.212;2023-04-03T05:27:39;99199.31;;;8.89;64.50
19259;BME280;9763;48.780;9.212;2023-04-03T05:31:05;99186.22;;;8.91;64.08
19259;BME280;9763;48.780;9.212;2023-04-03T05:34:31;99192.22;;;8.93;64.60
19259;BME280;9763;48.780;9.212;2023-04-03T05:37:56;99196.34;;;8.97;64.56
19259;BME280;9763;48.780;9.212;2023-04-03T05:41:19;99205.84;;;8.98;64.57
19259;BME280;9763;48.780;9.212;2023-04-03T05:44:44;99202.53;;;8.94;64.72
19259;BME280;9763;48.780;9.212;2023-04-03T05:48:10;99196.56;;;8.92;64.16
19259;BME280;9763;48.780;9.212;2023-04-03T05:51:36;99205.78;;;8.99;64.11
19259;BME280;9763;48.780;9.212;2023-04-03T05:55:17;99210.78;;;9.04;64.50
19259;BME280;9763;48.780;9.212;2023-04-03T05:58:41;99206.31;;;9.06;64.46
19259;BME280;9763;48.780;9.212;2023-04-03T06:02:04;99212.19;;;9.11;64.98
19259;BME280;9763;48.780;9.212;2023-04-03T06:05:29;99215.34;;;9.18;64.58
19259;BME280;9763;48.780;9.212;2023-04-03T06:08:53;99209.84;;;9.24;64.27
19259;BME280;9763;48.780;9.212;2023-04-03T06:12:17;99186.06;;;9.13;64.60
19259;BME280;9763;48.780;9.212;2023-04-03T06:15:41;99215.88;;;9.43;64.68
19259;BME280;9763;48.780;9.212;2023-04-03T06:19:05;99216.22;;;9.54;64.12
19259;BME280;9763;48.780;9.212;2023-04-03T06:22:30;99225.38;;;9.63;64.34
19259;BME280;9763;48.780;9.212;2023-04-03T06:25:55;99220.69;;;9.69;63.63
19259;BME280;9763;48.780;9.212;2023-04-03T06:29:20;99232.44;;;9.78;63.99
19259;BME280;9763;48.780;9.212;2023-04-03T06:32:43;99222.56;;;9.85;63.46
19259;BME280;9763;48.780;9.212;2023-04-03T06:36:10;99232.00;;;9.87;63.44
19259;BME280;9763;48.780;9.212;2023-04-03T06:39:36;99230.91;;;9.91;63.17
19259;BME280;9763;48.780;9.212;2023-04-03T06:42:59;99223.88;;;9.93;63.09
19259;BME280;9763;48.780;9.212;2023-04-03T06:46:24;99233.22;;;9.97;63.28
19259;BME280;9763;48.780;9.212;2023-04-03T06:49:48;99235.78;;;9.99;63.63
19259;BME280;9763;48.780;9.212;2023-04-03T06:53:12;99233.94;;;10.01;63.04
19259;BME280;9763;48.780;9.212;2023-04-03T06:56:37;99230.56;;;9.99;62.86
19259;BME280;9763;48.780;9.212;2023-04-03T07:00:02;99235.09;;;10.13;62.99
19259;BME280;9763;48.780;9.212;2023-04-03T07:03:26;99233.81;;;10.21;63.04
19259;BME280;9763;48.780;9.212;2023-04-03T07:06:50;99241.88;;;10.34;63.25
19259;BME280;9763;48.780;9.212;2023-04-03T07:10:14;99249.28;;;10.41;63.34
19259;BME280;9763;48.780;9.212;2023-04-03T07:13:39;99249.91;;;10.46;62.89
19259;BME280;9763;48.780;9.212;2023-04-03T07:17:03;99253.13;;;10.52;62.73
19259;BME280;9763;48.780;9.212;2023-04-03T07:20:27;99232.66;;;10.44;62.57
19259;BME280;9763;48.780;9.212;2023-04-03T07:23:51;99246.59;;;10.60;63.00
19259;BME280;9763;48.780;9.212;2023-04-03T07:27:15;99245.28;;;10.69;62.76
19259;BME280;9763;48.780;9.212;2023-04-03T07:30:45;99254.31;;;10.79;62.99
19259;BME280;9763;48.780;9.212;2023-04-03T07:34:10;99250.22;;;10.91;62.59
19259;BME280;9763;48.780;9.212;2023-04-03T07:37:33;99251.16;;;11.05;62.39
19259;BME280;9763;48.780;9.212;2023-04-03T07:40:58;99254.97;;;11.15;62.36
19259;BME280;9763;48.780;9.212;2023-04-03T07:44:21;99256.25;;;11.24;62.86
19259;BME280;9763;48.780;9.212;2023-04-03T07:47:47;99253.81;;;11.37;62.92
19259;BME280;9763;48.780;9.212;2023-04-03T07:51:11;99264.72;;;11.45;62.69
19259;BME280;9763;48.780;9.212;2023-04-03T07:54:35;99264.94;;;11.40;62.11
19259;BME280;9763;48.780;9.212;2023-04-03T07:57:59;99267.78;;;11.36;62.88
19259;BME280;9763;48.780;9.212;2023-04-03T08:01:22;99265.78;;;11.41;62.01
19259;BME280;9763;48.780;9.212;2023-04-03T08:04:48;99273.19;;;11.48;62.61
19259;BME280;9763;48.780;9.212;2023-04-03T08:08:13;99278.34;;;11.50;61.68
19259;BME280;9763;48.780;9.212;2023-04-03T08:11:39;99274.25;;;11.46;61.81
19259;BME280;9763;48.780;9.212;2023-04-03T08:15:04;99280.66;;;11.56;61.74
19259;BME280;9763;48.780;9.212;2023-04-03T08:18:32;99281.13;;;11.63;61.50
19259;BME280;9763;48.780;9.212;2023-04-03T08:21:57;99286.03;;;11.69;62.06
19259;BME280;9763;48.780;9.212;2023-04-03T08:25:23;99280.53;;;11.73;62.18
19259;BME280;9763;48.780;9.212;2023-04-03T08:28:47;99270.34;;;11.84;61.80
19259;BME280;9763;48.780;9.212;2023-04-03T08:32:10;99276.00;;;11.93;61.75
19259;BME280;9763;48.780;9.212;2023-04-03T08:35:39;99250.00;;;11.74;62.17
19259;BME280;9763;48.780;9.212;2023-04-03T08:39:05;99277.28;;;11.85;62.24
19259;BME280;9763;48.780;9.212;2023-04-03T08:42:43;99278.72;;;11.91;61.74
19259;BME280;9763;48.780;9.212;2023-04-03T08:46:13;99277.09;;;12.04;62.16
19259;BME280;9763;48.780;9.212;2023-04-03T08:49:42;99273.63;;;12.34;62.00
19259;BME280;9763;48.780;9.212;2023-04-03T08:53:15;99264.72;;;12.80;61.73
19259;BME280;9763;48.780;9.212;2023-04-03T08:56:40;99275.59;;;13.03;60.92
19259;BME280;9763;48.780;9.212;2023-04-03T09:00:16;99269.03;;;12.95;60.75
19259;BME280;9763;48.780;9.212;2023-04-03T09:03:41;99285.78;;;12.93;60.87
19259;BME280;9763;48.780;9.212;2023-04-03T09:07:14;99276.34;;;12.90;61.23
19259;BME280;9763;48.780;9.212;2023-04-03T09:10:41;99284.94;;;12.92;60.58
19259;BME280;9763;48.780;9.212;2023-04-03T09:14:17;99279.53;;;12.95;61.17
19259;BME280;9763;48.780;9.212;2023-04-03T09:17:59;99287.16;;;13.14;61.15
19259;BME280;9763;48.780;9.212;2023-04-03T09:21:31;99285.16;;;13.32;60.29
19259;BME280;9763;48.780;9.212;2023-04-03T09:25:05;99283.97;;;13.23;60.27
19259;BME280;9763;48.780;9.212;2023-04-03T09:28:37;99282.06;;;12.97;60.76
19259;BME280;9763;48.780;9.212;2023-04-03T09:32:26;99279.03;;;12.75;60.58
19259;BME280;9763;48.780;9.212;2023-04-03T09:35:51;99290.97;;;12.50;60.46
19259;BME280;9763;48.780;9.212;2023-04-03T09:39:17;99277.00;;;12.36;60.73
19259;BME280;9763;48.780;9.212;2023-04-03T09:42:42;99279.97;;;12.30;60.62
19259;BME280;9763;48.780;9.212;2023-04-03T09:46:25;99281.25;;;12.22;60.22
19259;BME280;9763;48.780;9.212;2023-04-03T09:50:18;99276.38;;;12.16;60.19
19259;BME280;9763;48.780;9.212;2023-04-03T09:53:44;99284.56;;;12.10;60.37
19259;BME280;9763;48.780;9.212;2023-04-03T09:57:11;99277.34;;;12.00;60.97
19259;BME280;9763;48.780;9.212;2023-04-03T10:00:37;99281.16;;;11.94;61.12
19259;BME280;9763;48.780;9.212;2023-04-03T10:04:09;99283.19;;;11.89;60.33
19259;BME280;9763;48.780;9.212;2023-04-03T10:07:36;99251.88;;;11.56;60.45
19259;BME280;9763;48.780;9.212;2023-04-03T10:11:14;99274.47;;;11.73;60.65
19259;BME280;9763;48.780;9.212;2023-04-03T10:14:41;99269.78;;;11.79;60.67
19259;BME280;9763;48.780;9.212;2023-04-03T10:18:35;99270.88;;;11.91;61.05
19259;BME280;9763;48.780;9.212;2023-04-03T10:22:15;99263.72;;;12.09;60.98
19259;BME280;9763;48.780;9.212;2023-04-03T10:25:56;99257.34;;;12.29;60.67
19259;BME280;9763;48.780;9.212;2023-04-03T10:29:38;99263.69;;;12.24;60.03
19259;BME280;9763;48.780;9.212;2023-04-03T10:33:20;99267.09;;;12.11;60.59
19259;BME280;9763;48.780;9.212;2023-04-03T10:36:53;99264.44;;;11.97;60.79
19259;BME280;9763;48.780;9.212;2023-04-03T10:40:30;99267.56;;;11.87;60.95
19259;BME280;9763;48.780;9.212;2023-04-03T10:44:12;99272.72;;;11.89;60.22
19259;BME280;9763;48.780;9.212;2023-04-03T10:47:50;99265.69;;;12.05;60.61
19259;BME280;9763;48.780;9.212;2023-04-03T10:51:26;99265.91;;;12.16;60.29
19259;BME280;9763;48.780;9.212;2023-04-03T10:55:04;99269.19;;;12.20;60.75
19259;BME280;9763;48.780;9.212;2023-04-03T10:58:35;99266.84;;;12.15;60.25
19259;BME280;9763;48.780;9.212;2023-04-03T11:02:07;99258.50;;;12.09;60.87
19259;BME280;9763;48.780;9.212;2023-04-03T11:05:36;99264.75;;;12.06;60.51
19259;BME280;9763;48.780;9.212;2023-04-03T11:09:07;99234.25;;;11.91;60.14
19259;BME280;9763;48.780;9.212;2023-04-03T11:12:42;99255.63;;;12.13;59.97
19259;BME280;9763;48.780;9.212;2023-04-03T11:16:09;99250.44;;;12.27;60.02
19259;BME280;9763;48.780;9.212;2023-04-03T11:19:44;99244.81;;;12.34;59.98
19259;BME280;9763;48.780;9.212;2023-04-03T11:23:20;99248.16;;;12.21;59.42
19259;BME280;9763;48.780;9.212;2023-04-03T11:26:45;99250.75;;;12.07;59.23
19259;BME280;9763;48.780;9.212;2023-04-03T11:30:19;99252.94;;;11.99;59.98
19259;BME280;9763;48.780;9.212;2023-04-03T11:33:54;99244.16;;;12.00;59.24
19259;BME280;9763;48.780;9.212;2023-04-03T11:37:29;99249.41;;;12.00;59.13
19259;BME280;9763;48.780;9.212;2023-04-03T11:40:55;99244.09;;;12.02;60.05
19259;BME280;9763;48.780;9.212;2023-04-03T11:44:35;99225.53;;;11.90;60.00
19259;BME280;9763;48.780;9.212;2023-04-03T11:48:02;99240.78;;;11.98;59.93
19259;BME280;9763;48.780;9.212;2023-04-03T11:51:44;99230.63;;;11.94;60.31
19259;BME280;9763;48.780;9.212;2023-04-03T11:55:45;99237.63;;;11.93;59.45
19259;BME280;9763;48.780;9.212;2023-04-03T11:59:22;99232.31;;;11.95;59.85
19259;BME280;9763;48.780;9.212;2023-04-03T12:02:46;99228.56;;;11.99;59.63
19259;BME280;9763;48.780;9.212;2023-04-03T12:06:54;99228.97;;;12.07;59.24
19259;BME280;9763;48.780;9.212;2023-04-03T12:10:21;99228.13;;;12.06;59.90
19259;BME280;9763;48.780;9.212;2023-04-03T12:14:12;99224.16;;;11.99;59.25
19259;BME280;9763;48.780;9.212;2023-04-03T12:17:38;99227.16;;;11.93;59.05
19259;BME280;9763;48.780;9.212;2023-04-03T12:21:02;99220.06;;;11.95;59.83
19259;BME280;9763;48.780;9.212;2023-04-03T12:24:29;99219.69;;;12.01;59.73
19259;BME280;9763;48.780;9.212;2023-04-03T12:27:53;99216.53;;;12.10;59.34
19259;BME280;9763;48.780;9.212;2023-04-03T12:31:20;99220.75;;;12.13;59.48
19259;BME280;9763;48.780;9.212;2023-04-03T12:35:02;99212.16;;;12.11;59.42
19259;BME280;9763;48.780;9.212;2023-04-03T12:39:03;99211.13;;;12.13;59.49
19259;BME280;9763;48.780;9.212;2023-04-03T12:42:56;99206.81;;;12.12;59.05
19259;BME280;9763;48.780;9.212;2023-04-03T12:46:37;99210.78;;;12.19;58.61
19259;BME280;9763;48.780;9.212;2023-04-03T12:50:15;99210.16;;;12.30;58.81
19259;BME280;9763;48.780;9.212;2023-04-03T12:53:40;99215.38;;;12.44;59.46
19259;BME280;9763;48.780;9.212;2023-04-03T12:57:13;99210.94;;;12.60;58.38
19259;BME280;9763;48.780;9.212;2023-04-03T13:00:39;99207.84;;;12.82;58.61
19259;BME280;9763;48.780;9.212;2023-04-03T13:04:05;99215.69;;;13.11;58.70
19259;BME280;9763;48.780;9.212;2023-04-03T13:07:32;99196.69;;;13.62;57.47
19259;BME280;9763;48.780;9.212;2023-04-03T13:11:01;99199.50;;;13.86;57.30
19259;BME280;9763;48.780;9.212;2023-04-03T13:14:28;99198.94;;;13.81;57.00
19259;BME280;9763;48.780;9.212;2023-04-03T13:17:53;99203.84;;;13.73;57.05
19259;BME280;9763;48.780;9.212;2023-04-03T13:21:22;99194.16;;;13.61;57.06
19259;BME280;9763;48.780;9.212;2023-04-03T13:24:51;99197.81;;;13.58;57.23
19259;BME280;9763;48.780;9.212;2023-04-03T13:28:19;99192.84;;;13.54;57.76
19259;BME280;9763;48.780;9.212;2023-04-03T13:31:43;99186.78;;;13.53;57.55
19259;BME280;9763;48.780;9.212;2023-04-03T13:35:35;99185.94;;;13.53;57.44
19259;BME280;9763;48.780;9.212;2023-04-03T13:39:05;99178.53;;;13.59;56.94
19259;BME280;9763;48.780;9.212;2023-04-03T13:42:33;99174.41;;;13.95;57.31
19259;BME280;9763;48.780;9.212;2023-04-03T13:46:05;99179.72;;;14.20;56.71
19259;BME280;9763;48.780;9.212;2023-04-03T13:49:33;99169.72;;;14.25;57.08
19259;BME280;9763;48.780;9.212;2023-04-03T13:53:03;99182.44;;;14.31;56.96
19259;BME280;9763;48.780;9.212;2023-04-03T13:56:36;99174.66;;;14.30;56.11
19259;BME280;9763;48.780;9.212;2023-04-03T14:03:44;99178.13;;;14.30;56.50
19259;BME280;9763;48.780;9.212;2023-04-03T14:07:08;99177.72;;;14.24;56.06
19259;BME280;9763;48.780;9.212;2023-04-03T14:10:32;99177.16;;;14.06;56.25
19259;BME280;9763;48.780;9.212;2023-04-03T14:14:01;99174.81;;;13.89;56.05
19259;BME280;9763;48.780;9.212;2023-04-03T14:17:27;99165.72;;;13.67;56.77
19259;BME280;9763;48.780;9.212;2023-04-03T14:20:51;99174.63;;;13.65;56.88
19259;BME280;9763;48.780;9.212;2023-04-03T14:24:15;99174.41;;;13.55;56.75
19259;BME280;9763;48.780;9.212;2023-04-03T14:27:42;99172.56;;;13.43;56.44
19259;BME280;9763;48.780;9.212;2023-04-03T14:31:09;99160.28;;;13.17;56.43
19259;BME280;9763;48.780;9.212;2023-04-03T14:34:33;99171.50;;;13.05;57.35
19259;BME280;9763;48.780;9.212;2023-04-03T14:37:57;99164.97;;;13.12;57.12
19259;BME280;9763;48.780;9.212;2023-04-03T14:41:23;99156.25;;;13.25;57.31
19259;BME280;9763;48.780;9.212;2023-04-03T14:44:47;99156.50;;;13.35;56.52
19259;BME280;9763;48.780;9.212;2023-04-03T14:48:19;99156.88;;;13.29;56.58
19259;BME280;9763;48.780;9.212;2023-04-03T14:51:44;99160.00;;;13.21;56.74
19259;BME280;9763;48.780;9.212;2023-04-03T14:55:08;99151.69;;;13.15;56.97
19259;BME280;9763;48.780;9.212;2023-04-03T14:58:32;99153.63;;;13.11;56.35
19259;BME280;9763;48.780;9.212;2023-04-03T15:01:58;99150.25;;;13.09;56.68
19259;BME280;9763;48.780;9.212;2023-04-03T15:05:23;99146.03;;;13.07;56.70
19259;BME280;9763;48.780;9.212;2023-04-03T15:08:48;99148.56;;;13.08;56.27
19259;BME280;9763;48.780;9.212;2023-04-03T15:12:12;99117.38;;;12.91;56.27
19259;BME280;9763;48.780;9.212;2023-04-03T15:15:42;99164.31;;;13.08;55.92
19259;BME280;9763;48.780;9.212;2023-04-03T15:19:05;99149.69;;;13.04;56.43
19259;BME280;9763;48.780;9.212;2023-04-03T15:22:30;99143.75;;;13.02;56.62
19259;BME280;9763;48.780;9.212;2023-04-03T15:25:54;99155.06;;;12.88;56.30
19259;BME280;9763;48.780;9.212;2023-04-03T15:29:18;99159.75;;;12.69;55.86
19259;BME280;9763;48.780;9.212;2023-04-03T15:32:41;99144.34;;;12.50;56.04
19259;BME280;9763;48.780;9.212;2023-04-03T15:36:06;99155.38;;;12.27;56.12
19259;BME280;9763;48.780;9.212;2023-04-03T15:39:51;99148.59;;;11.95;56.79
19259;BME280;9763;48.780;9.212;2023-04-03T15:43:15;99149.03;;;11.71;56.38
19259;BME280;9763;48.780;9.212;2023-04-03T15:46:39;99153.47;;;11.55;56.51
19259;BME280;9763;48.780;9.212;2023-04-03T15:50:04;99153.22;;;11.44;56.58
19259;BME280;9763;48.780;9.212;2023-04-03T15:53:30;99150.38;;;11.33;56.78
19259;BME280;9763;48.780;9.212;2023-04-03T15:56:55;99148.09;;;11.27;56.65
19259;BME280;9763;48.780;9.212;2023-04-03T16:00:20;99147.53;;;11.22;57.23
19259;BME280;9763;48.780;9.212;2023-04-03T16:03:44;99143.41;;;11.17;57.11
19259;BME280;9763;48.780;9.212;2023-04-03T16:07:08;99146.78;;;11.19;57.23
19259;BME280;9763;48.780;9.212;2023-04-03T16:10:32;99148.94;;;11.27;57.03
19259;BME280;9763;48.780;9.212;2023-04-03T16:13:57;99139.34;;;11.28;57.13
19259;BME280;9763;48.780;9.212;2023-04-03T16:17:21;99153.59;;;11.22;57.18
19259;BME280;9763;48.780;9.212;2023-04-03T16:20:46;99154.28;;;11.10;56.81
19259;BME280;9763;48.780;9.212;2023-04-03T16:24:10;99147.19;;;10.96;57.03
19259;BME280;9763;48.780;9.212;2023-04-03T16:27:36;99165.03;;;10.88;57.13
19259;BME280;9763;48.780;9.212;2023-04-03T16:31:02;99165.94;;;10.87;56.43
19259;BME280;9763;48.780;9.212;2023-04-03T16:34:27;99166.72;;;10.89;56.57
19259;BME280;9763;48.780;9.212;2023-04-03T16:37:52;99161.50;;;10.89;56.78
19259;BME280;9763;48.780;9.212;2023-04-03T16:41:16;99169.09;;;10.94;57.07
19259;BME280;9763;48.780;9.212;2023-04-03T16:44:40;99156.44;;;11.02;57.11
19259;BME280;9763;48.780;9.212;2023-04-03T16:48:05;99154.38;;;11.08;56.68
19259;BME280;9763;48.780;9.212;2023-04-03T16:51:29;99141.91;;;10.98;56.80
19259;BME280;9763;48.780;9.212;2023-04-03T16:54:54;99169.34;;;11.05;56.81
19259;BME280;9763;48.780;9.212;2023-04-03T16:58:18;99163.44;;;11.01;56.53
19259;BME280;9763;48.780;9.212;2023-04-03T17:01:45;99164.38;;;11.00;56.88
19259;BME280;9763;48.780;9.212;2023-04-03T17:05:10;99157.13;;;11.05;57.00
19259;BME280;9763;48.780;9.212;2023-04-03T17:08:34;99170.81;;;11.10;56.76
19259;BME280;9763;48.780;9.212;2023-04-03T17:11:58;99163.78;;;11.11;56.63
19259;BME280;9763;48.780;9.212;2023-04-03T17:15:22;99162.13;;;11.10;56.57
19259;BME280;9763;48.780;9.212;2023-04-03T17:18:47;99170.81;;;11.10;56.02
19259;BME280;9763;48.780;9.212;2023-04-03T17:22:13;99167.50;;;11.07;56.67
19259;BME280;9763;48.780;9.212;2023-04-03T17:25:38;99170.69;;;10.96;56.24
19259;BME280;9763;48.780;9.212;2023-04-03T17:29:03;99160.00;;;10.85;56.35
19259;BME280;9763;48.780;9.212;2023-04-03T17:32:27;99165.53;;;10.79;56.45
19259;BME280;9763;48.780;9.212;2023-04-03T17:35:51;99165.09;;;10.71;56.24
19259;BME280;9763;48.780;9.212;2023-04-03T17:39:16;99169.81;;;10.64;56.10
19259;BME280;9763;48.780;9.212;2023-04-03T17:42:40;99165.84;;;10.57;56.23
19259;BME280;9763;48.780;9.212;2023-04-03T17:46:06;99168.59;;;10.54;56.37
19259;BME280;9763;48.780;9.212;2023-04-03T17:49:30;99171.38;;;10.51;56.22
19259;BME280;9763;48.780;9.212;2023-04-03T17:52:54;99167.25;;;10.47;56.14
19259;BME280;9763;48.780;9.212;2023-04-03T17:56:22;99170.09;;;10.42;56.34
19259;BME280;9763;48.780;9.212;2023-04-03T17:59:46;99166.19;;;10.34;56.38
19259;BME280;9763;48.780;9.212;2023-04-03T18:03:10;99175.09;;;10.30;56.60
19259;BME280;9763;48.780;9.212;2023-04-03T18:06:39;99168.44;;;10.24;56.98
19259;BME280;9763;48.780;9.212;2023-04-03T18:10:05;99175.50;;;10.22;56.74
19259;BME280;9763;48.780;9.212;2023-04-03T18:13:31;99178.25;;;10.19;56.40
19259;BME280;9763;48.780;9.212;2023-04-03T18:16:59;99177.47;;;10.17;56.70
19259;BME280;9763;48.780;9.212;2023-04-03T18:20:23;99183.53;;;10.18;56.94
19259;BME280;9763;48.780;9.212;2023-04-03T18:23:50;99183.66;;;10.15;56.62
19259;BME280;9763;48.780;9.212;2023-04-03T18:27:18;99182.09;;;10.12;56.94
19259;BME280;9763;48.780;9.212;2023-04-03T18:30:43;99190.06;;;10.09;57.00
19259;BME280;9763;48.780;9.212;2023-04-03T18:34:07;99189.28;;;10.07;56.78
19259;BME280;9763;48.780;9.212;2023-04-03T18:37:31;99190.34;;;10.03;56.56
19259;BME280;9763;48.780;9.212;2023-04-03T18:40:54;99193.19;;;9.98;56.99
19259;BME280;9763;48.780;9.212;2023-04-03T18:44:21;99193.66;;;9.89;56.57